createdAt,value
2023-05-14T00:02:07.503Z,99911.81
2023-05-14T00:04:36.420Z,99908.00
2023-05-14T00:07:04.009Z,99910.91
2023-05-14T00:09:31.983Z,99912.84
2023-05-14T00:11:59.545Z,99913.16
2023-05-14T00:14:27.129Z,99906.75
2023-05-14T00:16:54.522Z,99916.75
2023-05-14T00:19:21.821Z,99902.78
2023-05-14T00:21:50.671Z,99908.44
2023-05-14T00:24:18.013Z,99914.22
2023-05-14T00:26:45.923Z,99914.72
2023-05-14T00:29:13.302Z,99921.81
2023-05-14T00:31:40.761Z,99917.00
2023-05-14T00:34:08.120Z,99919.13
2023-05-14T00:36:35.566Z,99914.13
2023-05-14T00:39:04.514Z,99919.44
2023-05-14T00:41:31.791Z,99906.56
2023-05-14T00:43:59.208Z,99921.38
2023-05-14T00:46:26.854Z,99911.59
2023-05-14T00:48:54.400Z,99912.69
2023-05-14T00:51:22.345Z,99918.50
2023-05-14T00:53:50.948Z,99916.13
2023-05-14T00:56:20.039Z,99916.94
2023-05-14T00:58:47.392Z,99923.53
2023-05-14T01:01:15.528Z,99920.19
2023-05-14T01:03:43.727Z,99923.88
2023-05-14T01:06:17.538Z,99928.25
2023-05-14T01:08:53.746Z,99933.69
2023-05-14T01:11:28.131Z,99925.94
2023-05-14T01:14:03.549Z,99920.94
2023-05-14T01:16:34.934Z,99922.41
2023-05-14T01:19:06.242Z,99929.78
2023-05-14T01:21:41.038Z,99933.63
2023-05-14T01:24:09.050Z,99931.53
2023-05-14T01:26:37.240Z,99932.94
2023-05-14T01:29:14.051Z,99937.59
2023-05-14T01:31:46.232Z,99933.59
2023-05-14T01:34:15.098Z,99936.31
2023-05-14T01:36:44.786Z,99942.06
2023-05-14T01:39:14.193Z,99949.44
2023-05-14T01:41:42.900Z,99947.34
2023-05-14T01:44:11.315Z,99944.28
2023-05-14T01:46:39.262Z,99956.31
2023-05-14T01:49:06.944Z,99944.44
2023-05-14T01:51:34.627Z,99953.09
2023-05-14T01:54:04.723Z,99948.28
2023-05-14T01:56:32.025Z,99949.69
2023-05-14T01:59:00.184Z,99953.53
2023-05-14T02:01:27.700Z,99951.13
2023-05-14T02:03:55.277Z,99953.06
2023-05-14T02:06:22.711Z,99951.44
2023-05-14T02:08:50.163Z,99949.50
2023-05-14T02:11:19.058Z,99955.28
2023-05-14T02:13:46.806Z,99955.44
2023-05-14T02:16:14.283Z,99957.38
2023-05-14T02:18:41.943Z,99964.63
2023-05-14T02:21:09.426Z,99966.22
2023-05-14T02:23:41.425Z,99960.28
2023-05-14T02:26:09.950Z,99961.09
2023-05-14T02:28:38.782Z,99968.00
2023-05-14T02:31:06.467Z,99967.81
2023-05-14T02:33:34.021Z,99966.84
2023-05-14T02:36:01.371Z,99969.91
2023-05-14T02:38:28.832Z,99977.00
2023-05-14T02:40:57.238Z,99974.94
2023-05-14T02:43:24.786Z,99978.00
2023-05-14T02:45:54.127Z,99975.91
2023-05-14T02:48:21.612Z,99978.34
2023-05-14T02:50:49.740Z,99982.06
2023-05-14T02:53:17.083Z,99974.69
2023-05-14T02:55:44.647Z,99970.84
2023-05-14T02:58:12.280Z,99978.88
2023-05-14T03:00:39.608Z,99982.41
2023-05-14T03:03:08.962Z,99978.75
2023-05-14T03:05:36.835Z,99984.38
2023-05-14T03:08:04.396Z,99988.41
2023-05-14T03:10:32.994Z,99981.19
2023-05-14T03:13:00.378Z,99985.97
2023-05-14T03:15:27.941Z,99991.63
2023-05-14T03:17:56.208Z,99991.97
2023-05-14T03:20:26.291Z,99991.47
2023-05-14T03:22:54.537Z,99993.88
2023-05-14T03:25:21.875Z,100000.31
2023-05-14T03:27:49.271Z,100007.56
2023-05-14T03:30:16.904Z,100001.31
2023-05-14T03:32:44.579Z,99999.88
2023-05-14T03:35:12.013Z,100005.97
2023-05-14T03:37:40.766Z,100000.22
2023-05-14T03:40:08.975Z,100000.69
2023-05-14T03:42:37.374Z,100004.72
2023-05-14T03:45:05.573Z,100000.84
2023-05-14T03:47:33.125Z,100014.03
2023-05-14T03:50:01.594Z,100008.25
2023-05-14T03:52:31.717Z,100004.41
2023-05-14T03:55:00.580Z,100009.19
2023-05-14T03:57:28.051Z,100008.72
2023-05-14T03:59:57.190Z,100015.47
2023-05-14T04:02:24.694Z,100011.13
2023-05-14T04:04:52.016Z,100010.28
2023-05-14T04:07:21.094Z,100013.19
2023-05-14T04:09:48.403Z,100008.50
2023-05-14T04:12:17.170Z,100019.28
2023-05-14T04:14:44.576Z,100031.34
2023-05-14T04:17:11.839Z,100013.63
2023-05-14T04:19:40.556Z,100025.69
2023-05-14T04:22:07.978Z,100024.03
2023-05-14T04:24:35.422Z,100027.75
2023-05-14T04:27:02.817Z,100030.66
2023-05-14T04:29:31.751Z,100030.78
2023-05-14T04:31:59.984Z,100030.28
2023-05-14T04:34:27.461Z,100036.03
2023-05-14T04:36:55.033Z,100030.19
2023-05-14T04:39:22.476Z,100037.25
2023-05-14T04:41:49.694Z,100032.63
2023-05-14T04:44:17.489Z,100029.88
2023-05-14T04:46:46.172Z,100030.78
2023-05-14T04:49:13.639Z,100032.19
2023-05-14T04:51:41.404Z,100034.25
2023-05-14T04:54:08.838Z,100030.34
2023-05-14T04:56:36.211Z,100032.25
2023-05-14T04:59:03.502Z,100034.75
2023-05-14T05:01:30.910Z,100032.59
2023-05-14T05:03:59.707Z,100032.97
2023-05-14T05:06:27.027Z,100037.63
2023-05-14T05:08:54.991Z,100035.78
2023-05-14T05:11:22.489Z,100033.59
2023-05-14T05:13:50.538Z,100036.50
2023-05-14T05:16:17.894Z,100040.06
2023-05-14T05:18:45.820Z,100039.88
2023-05-14T05:21:14.669Z,100037.31
2023-05-14T05:23:41.983Z,100042.75
2023-05-14T05:26:09.365Z,100041.34
2023-05-14T05:28:36.572Z,100043.84
2023-05-14T05:31:04.175Z,100055.09
2023-05-14T05:33:31.621Z,100035.84
2023-05-14T05:35:58.961Z,100041.16
2023-05-14T05:38:27.796Z,100045.25
2023-05-14T05:40:55.197Z,100040.81
2023-05-14T05:43:22.626Z,100043.47
2023-05-14T05:45:49.911Z,100041.13
2023-05-14T05:48:17.244Z,100034.41
2023-05-14T05:50:47.661Z,100039.31
2023-05-14T05:53:16.784Z,100031.56
2023-05-14T05:55:45.695Z,100039.31
2023-05-14T05:58:15.872Z,100036.25
2023-05-14T06:00:43.286Z,100021.41
2023-05-14T06:03:13.562Z,100035.66
2023-05-14T06:05:41.068Z,100029.84
2023-05-14T06:08:08.490Z,100029.78
2023-05-14T06:10:36.396Z,100034.81
2023-05-14T06:13:05.397Z,100034.75
2023-05-14T06:15:32.896Z,100037.47
2023-05-14T06:18:00.415Z,100031.03
2023-05-14T06:20:27.773Z,100032.56
2023-05-14T06:22:55.117Z,100028.78
2023-05-14T06:25:23.010Z,100030.03
2023-05-14T06:27:50.317Z,100026.91
2023-05-14T06:30:19.210Z,100027.88
2023-05-14T06:32:46.583Z,100030.81
2023-05-14T06:35:14.250Z,100018.13
2023-05-14T06:37:41.597Z,100038.50
2023-05-14T06:40:09.700Z,100033.94
2023-05-14T06:42:37.243Z,100017.38
2023-05-14T06:45:06.641Z,100026.19
2023-05-14T06:47:35.307Z,100023.34
2023-05-14T06:50:02.942Z,100025.63
2023-05-14T06:52:33.539Z,100025.84
2023-05-14T06:55:01.253Z,100030.69
2023-05-14T06:57:28.916Z,100032.13
2023-05-14T07:00:00.058Z,100030.34
2023-05-14T07:02:27.628Z,100030.25
2023-05-14T07:04:56.317Z,100034.81
2023-05-14T07:07:23.803Z,100037.06
2023-05-14T07:09:51.334Z,100029.06
2023-05-14T07:12:18.682Z,100034.84
2023-05-14T07:14:46.804Z,100044.56
2023-05-14T07:17:14.414Z,100046.56
2023-05-14T07:19:42.289Z,100046.84
2023-05-14T07:22:11.031Z,100043.66
2023-05-14T07:24:39.541Z,100047.09
2023-05-14T07:27:09.609Z,100049.88
2023-05-14T07:29:37.251Z,100047.88
2023-05-14T07:32:05.074Z,100058.69
2023-05-14T07:34:32.399Z,100055.63
2023-05-14T07:36:59.776Z,100056.34
2023-05-14T07:39:28.590Z,100054.31
2023-05-14T07:41:55.992Z,100057.03
2023-05-14T07:44:23.230Z,100053.78
2023-05-14T07:46:50.503Z,100054.69
2023-05-14T07:49:17.881Z,100054.63
2023-05-14T07:51:45.295Z,100055.56
2023-05-14T07:54:13.312Z,100059.59
2023-05-14T07:56:42.159Z,100055.03
2023-05-14T07:59:09.514Z,100059.97
2023-05-14T08:01:39.355Z,100058.31
2023-05-14T08:04:06.974Z,100060.69
2023-05-14T08:06:34.493Z,100062.63
2023-05-14T08:09:01.956Z,100066.94
2023-05-14T08:11:29.485Z,100064.50
2023-05-14T08:13:58.280Z,100064.69
2023-05-14T08:16:27.929Z,100057.91
2023-05-14T08:18:55.402Z,100071.28
2023-05-14T08:21:22.898Z,100063.13
2023-05-14T08:23:50.362Z,100062.81
2023-05-14T08:26:17.741Z,100063.28
2023-05-14T08:28:45.438Z,100059.94
2023-05-14T08:31:16.878Z,100064.94
2023-05-14T08:33:44.243Z,100059.81
2023-05-14T08:36:11.520Z,100054.88
2023-05-14T08:38:38.851Z,100055.28
2023-05-14T08:41:07.687Z,100058.97
2023-05-14T08:43:43.409Z,100045.78
2023-05-14T08:46:15.235Z,100060.22
2023-05-14T08:48:43.555Z,100055.72
2023-05-14T08:51:11.072Z,100050.22
2023-05-14T08:53:40.428Z,100054.41
2023-05-14T08:56:09.624Z,100052.41
2023-05-14T08:58:37.149Z,100036.78
2023-05-14T09:01:06.530Z,100051.53
2023-05-14T09:03:36.370Z,100046.34
2023-05-14T09:06:05.065Z,100047.94
2023-05-14T09:08:33.391Z,100050.53
2023-05-14T09:11:00.834Z,100051.38
2023-05-14T09:13:31.221Z,100042.81
2023-05-14T09:16:07.314Z,100048.44
2023-05-14T09:18:40.124Z,100054.03
2023-05-14T09:21:08.729Z,100050.84
2023-05-14T09:23:36.124Z,100045.63
2023-05-14T09:26:06.148Z,100044.22
2023-05-14T09:28:33.570Z,100046.28
2023-05-14T09:31:02.367Z,100041.88
2023-05-14T09:33:30.007Z,100026.53
2023-05-14T09:36:02.468Z,100046.69
2023-05-14T09:38:30.971Z,100043.47
2023-05-14T09:40:58.997Z,100041.25
2023-05-14T09:43:27.015Z,100048.19
2023-05-14T09:45:54.556Z,100048.00
2023-05-14T09:48:24.854Z,100040.38
2023-05-14T09:50:52.463Z,100041.97
2023-05-14T09:53:21.555Z,100047.16
2023-05-14T09:55:58.386Z,100044.97
2023-05-14T09:58:26.716Z,100046.78
2023-05-14T10:00:55.358Z,100048.34
2023-05-14T10:03:25.446Z,100053.31
2023-05-14T10:05:53.626Z,100039.38
2023-05-14T10:08:29.296Z,100041.41
2023-05-14T10:10:59.250Z,100034.66
2023-05-14T10:13:31.886Z,100038.88
2023-05-14T10:16:08.523Z,100040.22
2023-05-14T10:18:41.452Z,100038.59
2023-05-14T10:21:17.347Z,100036.25
2023-05-14T10:23:47.287Z,100033.06
2023-05-14T10:26:15.071Z,100040.50
2023-05-14T10:28:44.275Z,100042.66
2023-05-14T10:31:15.415Z,100038.03
2023-05-14T10:33:50.829Z,100033.84
2023-05-14T10:36:18.925Z,100035.63
2023-05-14T10:38:57.605Z,100028.28
2023-05-14T10:41:25.169Z,100031.03
2023-05-14T10:43:52.772Z,100029.25
2023-05-14T10:46:21.057Z,100032.44
2023-05-14T10:48:49.831Z,100027.50
2023-05-14T10:51:20.948Z,100019.50
2023-05-14T10:53:49.784Z,100020.28
2023-05-14T10:56:18.306Z,100024.44
2023-05-14T10:58:46.332Z,100030.25
2023-05-14T11:01:14.446Z,100020.47
2023-05-14T11:03:45.126Z,100025.28
2023-05-14T11:06:14.617Z,100021.88
2023-05-14T11:08:42.128Z,100019.72
2023-05-14T11:11:13.926Z,100019.91
2023-05-14T11:13:41.746Z,100024.69
2023-05-14T11:16:21.990Z,100016.72
2023-05-14T11:18:54.908Z,100017.88
2023-05-14T11:21:22.766Z,100016.09
2023-05-14T11:23:50.505Z,100017.66
2023-05-14T11:26:21.646Z,100019.88
2023-05-14T11:28:49.491Z,100014.09
2023-05-14T11:31:17.048Z,100012.66
2023-05-14T11:33:44.849Z,100024.41
2023-05-14T11:36:12.732Z,100013.63
2023-05-14T11:38:48.990Z,100014.06
2023-05-14T11:41:16.424Z,100011.28
2023-05-14T11:43:48.364Z,100005.91
2023-05-14T11:46:18.988Z,100005.09
2023-05-14T11:48:46.623Z,100001.66
2023-05-14T11:51:14.059Z,100003.69
2023-05-14T11:53:41.503Z,100007.84
2023-05-14T11:56:09.995Z,99997.25
2023-05-14T11:58:37.739Z,100006.38
2023-05-14T12:01:06.612Z,100011.19
2023-05-14T12:03:35.472Z,100008.59
2023-05-14T12:06:08.285Z,100011.56
2023-05-14T12:08:35.516Z,100013.63
2023-05-14T12:11:03.065Z,100014.59
2023-05-14T12:13:31.595Z,100010.84
2023-05-14T12:16:02.290Z,100009.25
2023-05-14T12:18:32.602Z,100002.84
2023-05-14T12:21:03.246Z,100006.44
2023-05-14T12:23:31.624Z,100011.22
2023-05-14T12:26:02.906Z,100004.84
2023-05-14T12:28:35.349Z,100006.81
2023-05-14T12:31:04.645Z,100011.63
2023-05-14T12:33:33.544Z,100013.81
2023-05-14T12:38:34.044Z,100006.22
2023-05-14T12:41:01.681Z,100004.00
2023-05-14T12:43:31.725Z,100005.22
2023-05-14T12:45:59.138Z,100017.97
2023-05-14T12:48:26.736Z,100008.38
2023-05-14T12:50:55.392Z,100011.72
2023-05-14T12:53:22.754Z,100003.72
2023-05-14T12:55:50.290Z,100008.06
2023-05-14T12:58:17.606Z,100007.84
2023-05-14T13:00:49.634Z,100010.44
2023-05-14T13:03:17.114Z,100003.66
2023-05-14T13:05:44.713Z,100013.84
2023-05-14T13:08:17.853Z,99999.91
2023-05-14T13:10:45.583Z,100011.84
2023-05-14T13:13:15.172Z,100012.31
2023-05-14T13:15:42.814Z,100003.94
2023-05-14T13:18:10.453Z,100007.56
2023-05-14T13:20:37.903Z,100011.28
2023-05-14T13:23:05.284Z,100009.03
2023-05-14T13:25:34.902Z,100005.03
2023-05-14T13:28:02.294Z,100016.63
2023-05-14T13:30:30.243Z,100012.00
2023-05-14T13:32:57.583Z,100007.63
2023-05-14T13:35:25.107Z,100017.44
2023-05-14T13:37:52.722Z,100010.91
2023-05-14T13:40:20.331Z,100020.75
2023-05-14T13:42:49.384Z,100009.34
2023-05-14T13:45:16.642Z,100013.63
2023-05-14T13:47:44.434Z,100011.53
2023-05-14T13:50:12.016Z,100011.28
2023-05-14T13:52:39.584Z,100015.25
2023-05-14T13:55:08.357Z,100008.47
2023-05-14T13:57:35.772Z,100017.03
2023-05-14T14:00:06.764Z,100021.38
2023-05-14T14:02:34.709Z,100018.53
2023-05-14T14:05:02.221Z,100011.84
2023-05-14T14:07:33.453Z,100019.03
2023-05-14T14:10:01.777Z,100016.38
2023-05-14T14:12:33.102Z,100019.78
2023-05-14T14:15:01.280Z,100015.41
2023-05-14T14:17:30.723Z,100015.16
2023-05-14T14:19:59.311Z,100010.72
2023-05-14T14:22:28.990Z,100005.72
2023-05-14T14:24:56.809Z,100014.13
2023-05-14T14:27:26.290Z,100003.34
2023-05-14T14:29:53.680Z,100012.25
2023-05-14T14:32:21.040Z,100010.03
2023-05-14T14:34:49.765Z,100015.22
2023-05-14T14:37:17.123Z,100011.81
2023-05-14T14:39:46.710Z,100012.44
2023-05-14T14:42:14.107Z,100012.63
2023-05-14T14:44:46.198Z,100016.75
2023-05-14T14:47:13.681Z,100018.72
2023-05-14T14:49:41.082Z,100015.03
2023-05-14T14:52:11.564Z,100015.78
2023-05-14T14:54:39.141Z,100011.97
2023-05-14T14:57:06.631Z,100020.88
2023-05-14T14:59:37.011Z,100027.06
2023-05-14T15:02:07.126Z,100020.84
2023-05-14T15:04:34.911Z,100026.00
2023-05-14T15:07:10.281Z,100023.59
2023-05-14T15:09:41.997Z,100020.03
2023-05-14T15:12:15.148Z,100022.44
2023-05-14T15:14:45.202Z,100021.09
2023-05-14T15:17:15.892Z,100015.66
2023-05-14T15:19:46.102Z,100006.13
2023-05-14T15:22:13.640Z,100011.34
2023-05-14T15:24:42.304Z,100005.81
2023-05-14T15:27:09.637Z,100012.38
2023-05-14T15:29:39.639Z,100008.75
2023-05-14T15:32:10.535Z,100006.13
2023-05-14T15:34:37.899Z,100012.66
2023-05-14T15:37:05.578Z,100016.00
2023-05-14T15:39:35.152Z,100007.28
2023-05-14T15:42:08.745Z,100007.28
2023-05-14T15:44:38.852Z,100010.28
2023-05-14T15:47:09.859Z,100005.31
2023-05-14T15:49:37.256Z,100010.50
2023-05-14T15:52:05.151Z,100005.25
2023-05-14T15:54:32.948Z,100007.41
2023-05-14T15:57:03.696Z,100010.00
2023-05-14T15:59:37.251Z,100005.78
2023-05-14T16:02:04.912Z,100004.91
2023-05-14T16:04:34.918Z,100007.03
2023-05-14T16:07:03.146Z,100010.94
2023-05-14T16:09:30.750Z,100008.56
2023-05-14T16:11:58.196Z,100011.31
2023-05-14T16:14:33.173Z,100013.63
2023-05-14T16:17:02.255Z,100010.34
2023-05-14T16:19:32.369Z,100015.44
2023-05-14T16:21:59.659Z,100017.56
2023-05-14T16:24:29.842Z,100015.97
2023-05-14T16:27:00.321Z,100017.63
2023-05-14T16:29:27.902Z,100013.75
2023-05-14T16:31:57.276Z,100017.75
2023-05-14T16:34:26.219Z,100010.53
2023-05-14T16:36:58.394Z,100018.47
2023-05-14T16:39:25.639Z,100011.69
2023-05-14T16:41:55.820Z,100018.19
2023-05-14T16:44:23.071Z,100019.53
2023-05-14T16:46:51.221Z,100017.47
2023-05-14T16:49:24.972Z,100022.22
2023-05-14T16:51:56.649Z,100032.06
2023-05-14T16:54:24.194Z,100030.81
2023-05-14T16:56:51.631Z,100033.13
2023-05-14T16:59:18.993Z,100031.72
2023-05-14T17:01:48.212Z,100028.69
2023-05-14T17:04:16.028Z,100031.75
2023-05-14T17:06:43.391Z,100032.13
2023-05-14T17:09:17.879Z,100032.47
2023-05-14T17:11:45.407Z,100037.69
2023-05-14T17:14:12.750Z,100039.38
2023-05-14T17:16:44.462Z,100045.22
2023-05-14T17:19:11.863Z,100036.06
2023-05-14T17:21:42.060Z,100041.47
2023-05-14T17:24:15.863Z,100039.91
2023-05-14T17:26:48.710Z,100037.22
2023-05-14T17:29:16.019Z,100040.50
2023-05-14T17:31:47.891Z,100042.59
2023-05-14T17:34:17.815Z,100048.09
2023-05-14T17:36:46.203Z,100050.38
2023-05-14T17:39:15.375Z,100045.88
2023-05-14T17:41:44.389Z,100049.03
2023-05-14T17:44:13.267Z,100064.34
2023-05-14T17:46:43.869Z,100060.50
2023-05-14T17:49:12.111Z,100061.00
2023-05-14T17:51:41.349Z,100062.97
2023-05-14T17:54:08.726Z,100065.84
2023-05-14T17:56:36.610Z,100065.38
2023-05-14T17:59:05.561Z,100076.03
2023-05-14T18:01:33.348Z,100064.13
2023-05-14T18:04:01.106Z,100072.19
2023-05-14T18:06:30.430Z,100076.19
2023-05-14T18:09:01.812Z,100082.47
2023-05-14T18:11:38.853Z,100079.25
2023-05-14T18:14:07.558Z,100083.09
2023-05-14T18:16:35.120Z,100070.41
2023-05-14T18:19:02.563Z,100077.66
2023-05-14T18:21:31.748Z,100076.56
2023-05-14T18:23:59.137Z,100083.28
2023-05-14T18:26:26.788Z,100079.28
2023-05-14T18:28:57.136Z,100083.63
2023-05-14T18:31:29.186Z,100082.00
2023-05-14T18:33:56.741Z,100085.06
2023-05-14T18:36:27.108Z,100082.84
2023-05-14T18:38:54.581Z,100085.72
2023-05-14T18:41:22.107Z,100078.47
2023-05-14T18:43:50.064Z,100078.16
2023-05-14T18:46:18.260Z,100083.78
2023-05-14T18:48:47.170Z,100087.50
2023-05-14T18:51:14.589Z,100080.91
2023-05-14T18:53:43.755Z,100088.00
2023-05-14T18:56:11.504Z,100084.91
2023-05-14T18:58:43.970Z,100091.53
2023-05-14T19:01:11.573Z,100084.59
2023-05-14T19:03:40.300Z,100093.13
2023-05-14T19:06:09.415Z,100087.31
2023-05-14T19:08:38.538Z,100080.91
2023-05-14T19:11:06.060Z,100086.03
2023-05-14T19:13:33.722Z,100093.75
2023-05-14T19:16:01.327Z,100092.47
2023-05-14T19:18:30.253Z,100090.03
2023-05-14T19:23:40.477Z,100090.19
2023-05-14T19:26:08.109Z,100085.38
2023-05-14T19:28:38.074Z,100097.56
2023-05-14T19:31:05.521Z,100101.44
2023-05-14T19:33:32.983Z,100101.56
2023-05-14T19:36:00.799Z,100109.47
2023-05-14T19:38:28.314Z,100098.53
2023-05-14T19:40:57.301Z,100098.53
2023-05-14T19:43:25.758Z,100097.91
2023-05-14T19:45:53.148Z,100100.75
2023-05-14T19:48:22.453Z,100105.41
2023-05-14T19:50:49.806Z,100098.00
2023-05-14T19:53:17.425Z,100106.84
2023-05-14T19:55:45.002Z,100107.16
2023-05-14T19:58:13.803Z,100105.03
2023-05-14T20:00:42.012Z,100094.25
2023-05-14T20:03:10.041Z,100099.03
2023-05-14T20:05:37.910Z,100088.41
2023-05-14T20:08:08.196Z,100095.50
2023-05-14T20:10:35.794Z,100097.41
2023-05-14T20:13:03.411Z,100098.81
2023-05-14T20:15:32.240Z,100094.28
2023-05-14T20:17:59.906Z,100098.13
2023-05-14T20:20:29.488Z,100091.06
2023-05-14T20:22:58.398Z,100091.50
2023-05-14T20:25:28.334Z,100104.81
2023-05-14T20:27:56.417Z,100096.13
2023-05-14T20:30:23.988Z,100094.63
2023-05-14T20:32:53.272Z,100098.78
2023-05-14T20:35:20.754Z,100093.94
2023-05-14T20:37:49.566Z,100097.78
2023-05-14T20:40:17.056Z,100098.38
2023-05-14T20:42:44.561Z,100095.44
2023-05-14T20:45:12.166Z,100096.06
2023-05-14T20:47:40.606Z,100100.84
2023-05-14T20:50:09.838Z,100100.19
2023-05-14T20:52:37.345Z,100099.97
2023-05-14T20:55:05.526Z,100105.19
2023-05-14T20:57:34.266Z,100103.38
2023-05-14T21:00:02.553Z,100102.88
2023-05-14T21:02:37.456Z,100102.63
2023-05-14T21:05:05.954Z,100095.66
2023-05-14T21:07:36.310Z,100100.41
2023-05-14T21:10:03.820Z,100094.25
2023-05-14T21:12:34.016Z,100093.59
2023-05-14T21:15:01.416Z,100094.69
2023-05-14T21:17:33.295Z,100089.56
2023-05-14T21:20:01.043Z,100095.78
2023-05-14T21:22:28.529Z,100096.88
2023-05-14T21:24:57.214Z,100100.69
2023-05-14T21:27:24.652Z,100100.16
2023-05-14T21:29:51.906Z,100091.84
2023-05-14T21:32:20.380Z,100095.63
2023-05-14T21:34:47.700Z,100089.19
2023-05-14T21:37:15.536Z,100093.66
2023-05-14T21:39:43.209Z,100092.03
2023-05-14T21:42:11.982Z,100097.16
2023-05-14T21:44:39.239Z,100096.22
2023-05-14T21:47:07.897Z,100097.44
2023-05-14T21:49:35.747Z,100103.00
2023-05-14T21:52:03.170Z,100095.88
2023-05-14T21:54:30.600Z,100098.88
2023-05-14T21:56:58.105Z,100099.97
2023-05-14T21:59:26.875Z,100091.25
2023-05-14T22:04:24.704Z,100088.63
2023-05-14T22:06:52.085Z,100089.38
2023-05-14T22:09:19.577Z,100086.59
2023-05-14T22:11:47.060Z,100091.47
2023-05-14T22:14:14.523Z,100087.47
2023-05-14T22:16:43.372Z,100089.09
2023-05-14T22:19:10.838Z,100088.28
2023-05-14T22:21:38.078Z,100090.72
2023-05-14T22:24:06.076Z,100093.94
2023-05-14T22:26:33.383Z,100096.75
2023-05-14T22:29:00.918Z,100095.16
2023-05-14T22:31:28.417Z,100090.19
2023-05-14T22:33:57.135Z,100091.94
2023-05-14T22:36:24.608Z,100097.31
2023-05-14T22:38:52.078Z,100096.09
2023-05-14T22:41:19.409Z,100093.69
2023-05-14T22:43:48.739Z,100093.56
2023-05-14T22:46:16.307Z,100093.16
2023-05-14T22:48:45.060Z,100096.75
2023-05-14T22:51:14.071Z,100094.88
2023-05-14T22:53:41.373Z,100096.63
2023-05-14T22:56:08.784Z,100092.63
2023-05-14T22:58:36.354Z,100100.53
2023-05-14T23:01:03.783Z,100096.63
2023-05-14T23:03:31.177Z,100100.41
2023-05-14T23:05:58.623Z,100099.31
2023-05-14T23:08:27.381Z,100104.28
2023-05-14T23:10:55.066Z,100100.66
2023-05-14T23:13:22.393Z,100097.69
2023-05-14T23:15:49.690Z,100099.81
2023-05-14T23:18:17.354Z,100096.59
2023-05-14T23:20:44.758Z,100108.03
2023-05-14T23:23:12.117Z,100106.94
2023-05-14T23:25:40.811Z,100104.22
2023-05-14T23:28:08.255Z,100114.28
2023-05-14T23:30:36.025Z,100108.09
2023-05-14T23:33:03.408Z,100107.94
2023-05-14T23:35:30.958Z,100113.41
2023-05-14T23:37:58.251Z,100103.47
2023-05-14T23:40:25.623Z,100113.66
2023-05-14T23:42:54.657Z,100111.00
2023-05-14T23:45:22.291Z,100107.75
2023-05-14T23:47:49.792Z,100108.56
2023-05-14T23:50:16.999Z,100110.06
2023-05-14T23:52:44.312Z,100108.44
2023-05-14T23:55:11.694Z,100113.78
2023-05-14T23:57:39.199Z,100114.16
